createdAt,value
2023-04-15T00:00:16.613Z,45.42
2023-04-15T00:03:41.074Z,45.85
2023-04-15T00:07:03.911Z,46.14
2023-04-15T00:10:26.571Z,46.10
2023-04-15T00:13:49.935Z,46.04
2023-04-15T00:17:12.976Z,46.39
2023-04-15T00:20:38.107Z,46.34
2023-04-15T00:24:00.872Z,46.52
2023-04-15T00:27:23.549Z,46.63
2023-04-15T00:30:47.834Z,46.65
2023-04-15T00:34:12.100Z,46.98
2023-04-15T00:37:37.319Z,46.81
2023-04-15T00:41:01.500Z,47.27
2023-04-15T00:44:24.149Z,46.91
2023-04-15T00:47:48.791Z,47.26
2023-04-15T00:51:12.942Z,47.42
2023-04-15T00:54:38.156Z,47.62
2023-04-15T00:58:02.257Z,47.25
2023-04-15T01:01:27.377Z,47.51
2023-04-15T01:04:50.988Z,47.14
2023-04-15T01:08:15.417Z,47.73
2023-04-15T01:11:41.146Z,47.22
2023-04-15T01:15:04.989Z,47.21
2023-04-15T01:18:28.913Z,47.06
2023-04-15T01:21:52.378Z,47.38
2023-04-15T01:25:21.184Z,47.78
2023-04-15T01:28:48.542Z,47.57
2023-04-15T01:32:11.802Z,48.14
2023-04-15T01:35:34.663Z,47.40
2023-04-15T01:38:59.229Z,47.32
2023-04-15T01:42:24.268Z,47.19
2023-04-15T01:45:49.182Z,47.66
2023-04-15T01:49:12.140Z,47.51
2023-04-15T01:52:35.098Z,47.90
2023-04-15T01:55:58.012Z,48.00
2023-04-15T01:59:21.427Z,47.79
2023-04-15T02:02:45.530Z,47.70
2023-04-15T02:06:08.375Z,48.78
2023-04-15T02:09:32.254Z,49.38
2023-04-15T02:12:55.523Z,48.79
2023-04-15T02:16:23.018Z,49.30
2023-04-15T02:19:47.177Z,49.31
2023-04-15T07:09:46.883Z,41.84
2023-04-15T07:13:10.334Z,43.54
2023-04-15T07:16:32.559Z,42.61
2023-04-15T08:24:04.047Z,40.34
2023-04-15T08:27:26.244Z,40.87
2023-04-15T08:36:15.282Z,40.03
2023-04-15T08:39:39.376Z,41.32
2023-04-15T08:52:56.753Z,39.35
2023-04-15T09:01:14.111Z,41.28
2023-04-15T09:09:30.664Z,40.50
2023-04-15T09:12:52.905Z,39.79
2023-04-15T09:16:16.382Z,40.21
2023-04-15T09:29:51.873Z,39.18
2023-04-15T09:33:56.249Z,39.55
2023-04-15T09:56:43.183Z,39.70
2023-04-15T10:00:06.680Z,39.45
2023-04-15T10:04:29.816Z,38.49
2023-04-15T10:07:52.201Z,38.40
2023-04-15T10:31:32.763Z,37.59
2023-04-15T10:50:01.696Z,36.48
2023-04-15T10:58:17.565Z,37.26
2023-04-15T11:02:29.492Z,36.47
2023-04-15T11:15:49.254Z,36.23
2023-04-15T11:19:40.575Z,36.14
2023-04-15T11:27:58.878Z,35.81
2023-04-15T11:40:57.410Z,36.38
2023-04-15T11:44:19.876Z,35.81
2023-04-15T12:12:08.391Z,36.13
2023-04-15T12:15:30.519Z,35.79
2023-04-15T12:18:55.313Z,36.52
2023-04-15T12:27:55.145Z,34.82
2023-04-15T12:46:28.658Z,35.09
2023-04-15T12:59:31.714Z,35.37
2023-04-15T13:13:39.051Z,34.51
2023-04-15T13:27:04.638Z,33.96
2023-04-15T14:09:48.513Z,33.65
2023-04-15T14:13:11.997Z,32.98
2023-04-15T14:16:34.514Z,32.49
2023-04-15T14:19:56.500Z,33.73
2023-04-15T14:23:18.183Z,32.77
2023-04-15T14:26:40.001Z,32.32
2023-04-15T14:30:03.347Z,33.03
2023-04-15T14:33:25.249Z,32.53
2023-04-15T14:36:47.121Z,33.66
2023-04-15T14:40:10.628Z,32.81
2023-04-15T14:43:36.576Z,33.17
2023-04-15T14:47:02.438Z,32.31
2023-04-15T14:50:24.333Z,32.41
2023-04-15T14:53:46.743Z,34.20
2023-04-15T14:57:10.136Z,33.00
2023-04-15T15:00:32.185Z,33.15
2023-04-15T15:03:55.864Z,32.92
2023-04-15T15:07:17.700Z,32.26
2023-04-15T15:10:49.057Z,32.48
2023-04-15T15:14:12.142Z,33.24
2023-04-15T15:17:34.497Z,33.18
2023-04-15T15:20:58.130Z,32.98
2023-04-15T15:24:20.397Z,33.84
2023-04-15T15:27:42.682Z,34.07
2023-04-15T15:31:05.496Z,33.45
2023-04-15T15:34:27.242Z,33.17
2023-04-15T15:37:50.513Z,33.78
2023-04-15T15:41:13.407Z,33.98
2023-04-15T15:44:36.486Z,33.61
2023-04-15T15:47:59.428Z,33.91
2023-04-15T15:51:22.360Z,33.96
2023-04-15T15:54:45.952Z,34.22
2023-04-15T15:58:07.939Z,34.40
2023-04-15T16:01:30.113Z,34.35
2023-04-15T16:04:52.745Z,34.18
2023-04-15T16:08:14.716Z,34.35
2023-04-15T16:11:41.513Z,33.69
2023-04-15T16:15:04.399Z,33.86
2023-04-15T16:18:26.471Z,34.32
2023-04-15T16:21:48.315Z,34.77
2023-04-15T16:25:10.860Z,35.06
2023-04-15T16:28:34.570Z,34.98
2023-04-15T16:31:57.235Z,35.03
2023-04-15T16:35:19.420Z,34.86
2023-04-15T16:38:41.221Z,35.32
2023-04-15T16:42:03.629Z,35.07
2023-04-15T16:45:27.109Z,35.06
2023-04-15T16:48:49.198Z,35.27
2023-04-15T16:52:11.280Z,35.47
2023-04-15T16:55:33.136Z,34.66
2023-04-15T16:58:55.163Z,35.17
2023-04-15T17:02:18.630Z,35.23
2023-04-15T17:05:42.491Z,34.15
2023-04-15T17:09:04.940Z,34.57
2023-04-15T17:12:27.300Z,35.17
2023-04-15T17:15:49.521Z,34.86
2023-04-15T17:19:13.301Z,35.22
2023-04-15T17:22:35.954Z,35.89
2023-04-15T17:25:57.957Z,36.39
2023-04-15T17:29:20.674Z,36.54
2023-04-15T17:32:42.758Z,36.69
2023-04-15T17:36:07.203Z,37.95
2023-04-15T17:39:29.667Z,37.59
2023-04-15T17:42:51.257Z,37.91
2023-04-15T17:46:13.615Z,38.01
2023-04-15T17:49:37.865Z,37.88
2023-04-15T17:53:02.328Z,38.60
2023-04-15T17:56:24.297Z,38.38
2023-04-15T17:59:47.891Z,38.61
2023-04-15T18:03:10.604Z,38.66
2023-04-15T18:06:32.770Z,39.68
2023-04-15T18:09:56.610Z,39.65
2023-04-15T18:13:19.038Z,39.71
2023-04-15T18:16:42.918Z,40.13
2023-04-15T18:20:05.380Z,40.04
2023-04-15T18:23:28.897Z,40.20
2023-04-15T18:26:53.507Z,40.18
2023-04-15T18:30:15.432Z,40.18
2023-04-15T18:33:37.661Z,40.66
2023-04-15T18:36:59.927Z,40.59
2023-04-15T18:40:21.746Z,40.79
2023-04-15T18:43:44.957Z,41.22
2023-04-15T18:47:07.294Z,41.60
2023-04-15T18:50:29.140Z,41.42
2023-04-15T18:53:50.951Z,41.42
2023-04-15T18:57:13.457Z,41.70
2023-04-15T19:00:41.958Z,42.50
2023-04-15T19:04:03.967Z,41.77
2023-04-15T19:07:26.759Z,42.35
2023-04-15T19:10:49.151Z,42.45
2023-04-15T19:14:11.641Z,42.74
2023-04-15T19:17:34.779Z,42.94
2023-04-15T19:20:57.905Z,42.62
2023-04-15T19:24:20.923Z,42.47
2023-04-15T19:27:43.011Z,42.68
2023-04-15T19:31:06.383Z,43.01
2023-04-15T19:34:29.588Z,42.62
2023-04-15T19:37:51.626Z,43.52
2023-04-15T19:41:13.253Z,42.95
2023-04-15T19:44:35.028Z,43.59
2023-04-15T19:47:57.299Z,43.38
2023-04-15T19:51:20.938Z,43.14
2023-04-15T19:54:42.686Z,44.49
2023-04-15T19:58:04.756Z,44.48
2023-04-15T20:01:27.319Z,44.44
2023-04-15T20:04:49.678Z,43.90
2023-04-15T20:08:13.154Z,44.24
2023-04-15T20:12:46.851Z,44.19
2023-04-15T20:15:17.459Z,44.26
2023-04-15T20:18:39.662Z,44.92
2023-04-15T20:22:01.983Z,44.64
2023-04-15T20:25:25.709Z,44.57
2023-04-15T20:28:47.497Z,45.34
2023-04-15T20:32:11.681Z,45.09
2023-04-15T20:35:33.728Z,45.18
2023-04-15T20:38:55.818Z,44.78
2023-04-15T20:42:19.922Z,45.76
2023-04-15T20:45:41.727Z,45.26
2023-04-15T20:49:03.762Z,46.78
2023-04-15T20:52:26.056Z,45.86
2023-04-15T20:55:48.265Z,46.13
2023-04-15T20:59:11.957Z,46.75
2023-04-15T21:02:33.984Z,46.09
2023-04-15T21:05:55.699Z,47.19
2023-04-15T21:09:17.530Z,47.33
2023-04-15T21:12:40.991Z,47.40
2023-04-15T21:16:04.406Z,47.60
2023-04-15T21:19:26.474Z,47.40
2023-04-15T21:22:48.152Z,47.64
2023-04-15T21:26:10.023Z,48.04
2023-04-15T21:29:31.875Z,47.78
2023-04-15T21:32:55.911Z,48.28
2023-04-15T21:36:17.676Z,49.27
2023-04-15T21:39:39.623Z,48.83
2023-04-15T21:43:01.525Z,49.28
2023-04-15T21:46:25.305Z,49.24
2023-04-15T21:49:50.362Z,49.19
2023-04-15T21:53:12.331Z,50.10
2023-04-15T21:56:34.508Z,50.69
2023-04-15T21:59:56.562Z,50.50
2023-04-15T22:03:18.257Z,50.77
2023-04-15T22:06:41.918Z,51.08
2023-04-15T22:10:03.882Z,51.05
2023-04-15T22:13:26.048Z,51.51
2023-04-15T22:16:48.089Z,51.10
2023-04-15T22:20:10.860Z,51.78
2023-04-15T22:23:34.056Z,51.50
2023-04-15T22:26:55.994Z,52.05
2023-04-15T22:30:18.050Z,52.30
2023-04-15T22:33:39.992Z,52.22
2023-04-15T22:37:01.791Z,52.15
2023-04-15T22:40:25.050Z,52.43
2023-04-15T22:43:47.574Z,52.40
2023-04-15T22:47:09.666Z,52.29
2023-04-15T22:50:31.463Z,52.09
2023-04-15T22:53:53.097Z,52.88
2023-04-15T22:57:16.257Z,52.16
2023-04-15T23:00:38.804Z,52.32
2023-04-15T23:04:09.534Z,52.94
2023-04-15T23:07:42.902Z,52.84
2023-04-15T23:11:04.774Z,53.92
2023-04-15T23:14:28.278Z,53.43
2023-04-15T23:17:51.222Z,52.77
2023-04-15T23:21:12.875Z,53.54
2023-04-15T23:24:34.685Z,53.26
2023-04-15T23:27:56.804Z,53.13
2023-04-15T23:31:20.229Z,52.72
2023-04-15T23:34:42.334Z,53.20
2023-04-15T23:38:04.254Z,53.44
2023-04-15T23:41:25.982Z,53.39
2023-04-15T23:44:47.936Z,53.86
2023-04-15T23:48:11.136Z,53.40
2023-04-15T23:51:33.084Z,53.54
2023-04-15T23:54:55.005Z,53.41
2023-04-15T23:58:16.786Z,53.35
